WF3W Weather Reports


Display with metric or nautical units.
time (UTC)temp
F
wind
direction
speed
MPH
gust
MPH
rain 1hr
in
rain 24hr
in
rain mn
in
humidity
%
barometer
mb
20200408204538 65 20 0.0 5.0 0.01 0.44 0.44 69 1001.2
20200408203023 71 55 4.0 10.0 0.00 0.43 0.43 55 1001.3
20200408201537 72 304 1.0 8.0 0.00 0.43 0.43 51 1001.0
20200408200049 72 206 1.0 4.0 0.00 0.43 0.43 53 1001.0
20200408194522 70 352 1.0 5.0 0.00 0.43 0.43 54 1001.2
20200408193040 69 245 2.0 5.0 0.00 0.43 0.43 56 1001.4
20200408191530 71 5 3.0 9.0 0.00 0.43 0.43 54 1001.5
20200408190057 71 318 1.0 7.0 0.00 0.43 0.43 54 1001.3
20200408184530 70 319 4.0 8.0 0.00 0.43 0.43 55 1001.5
20200408183037 70 333 3.0 7.0 0.00 0.43 0.43 55 1001.6
20200408181544 70 22 4.0 8.0 0.00 0.43 0.43 56 1001.7
20200408180043 69 283 2.0 6.0 0.00 0.43 0.43 57 1001.7
20200408174534 69 311 2.0 8.0 0.00 0.43 0.43 60 1001.6
20200408173023 68 275 2.0 7.0 0.00 0.43 0.43 59 1001.5
20200408171542 67 286 3.0 9.0 0.00 0.43 0.43 61 1001.4
20200408170040 67 270 4.0 10.0 0.00 0.43 0.43 64 1001.4
20200408164542 66 306 2.0 9.0 0.00 0.43 0.43 64 1001.4
20200408163030 67 281 3.0 9.0 0.00 0.43 0.43 66 1001.4
20200408161522 66 283 2.0 5.0 0.00 0.43 0.43 69 1001.4
20200408160058 65 276 1.0 6.0 0.00 0.43 0.43 69 1001.5
20200408154527 65 335 4.0 7.0 0.00 0.43 0.43 69 1001.7
20200408153036 66 262 3.0 8.0 0.00 0.43 0.43 68 1001.7
20200408151526 65 260 2.0 8.0 0.00 0.43 0.43 70 1001.7
20200408150045 64 259 2.0 6.0 0.00 0.43 0.43 73 1001.8
20200408144548 63 231 2.0 7.0 0.00 0.43 0.43 75 1001.8
20200408143052 63 285 2.0 6.0 0.00 0.43 0.43 76 1001.7
20200408141525 62 288 4.0 9.0 0.00 0.43 0.43 79 1001.5
20200408140040 62 252 3.0 8.0 0.00 0.43 0.43 81 1001.3
20200408134528 61 339 4.0 8.0 0.00 0.43 0.43 85 1000.9
20200408133038 59 265 2.0 4.0 0.00 0.43 0.43 91 1000.7
20200408131540 58 310 1.0 5.0 0.00 0.43 0.43 94 1000.6
20200408130045 57 277 0.0 3.0 0.00 0.43 0.43 96 1000.7
20200408124524 56 315 0.0 3.0 0.00 0.43 0.43 96 1000.7
20200408123026 56 290 1.0 4.0 0.00 0.43 0.43 97 1000.5
20200408121528 55 255 0.0 3.0 0.00 0.43 0.43 97 1000.5
20200408120041 55 251 0.0 2.0 0.00 0.43 0.43 97 1000.6
20200408050055 56 226 0.0 4.0 0.00 0.00 0.00 86 1003.3
20200408044527 56 203 1.0 2.0 0.00 0.00 0.00 85 1003.6
20200408043033 56 200 0.0 2.0 0.00 0.00 0.00 84 1004.1
20200408041521 56 149 0.0 4.0 0.00 0.00 0.00 83 1004.4
20200408040048 56 188 2.0 5.0 0.00 0.00 0.00 82 1004.6
20200408034546 56 164 1.0 3.0 0.00 0.00 0.00 81 1004.9
20200408033033 57 139 1.0 3.0 0.00 0.00 0.00 80 1005.3
20200408031541 57 190 0.0 2.0 0.00 0.00 0.00 79 1005.6
20200408030049 57 212 0.0 2.0 0.00 0.00 0.00 78 1006.0
20200408024525 58 202 0.0 3.0 0.00 0.00 0.00 77 1006.4
20200408023033 58 150 0.0 2.0 0.00 0.00 0.00 77 1006.7
20200408021532 59 194 0.0 2.0 0.00 0.00 0.00 76 1007.0
20200408020048 59 129 0.0 2.0 0.00 0.00 0.00 76 1007.0
20200408014548 59 189 0.0 2.0 0.00 0.00 0.00 75 1007.1
20200408011524 60 217 1.0 2.0 0.00 0.00 0.00 74 1007.5
20200408010051 60 205 0.0 0.0 0.00 0.00 0.00 74 1007.5
20200408004522 61 174 1.0 2.0 0.00 0.00 0.00 73 1007.6
20200408003039 61 152 0.0 3.0 0.00 0.00 0.00 72 1007.7
20200408001527 62 233 0.0 5.0 0.00 0.00 0.00 71 1007.8
20200408000039 62 168 1.0 3.0 0.00 0.00 0.00 69 1007.6
20200407234544 62 231 0.0 2.0 0.00 0.00 0.00 65 1007.7
20200407233030 63 156 1.0 3.0 0.00 0.00 0.00 63 1007.7
20200407231522 63 181 1.0 4.0 0.00 0.00 0.00 62 1007.7
20200407230057 64 136 0.0 2.0 0.00 0.00 0.00 61 1008.0
20200407224543 64 112 1.0 3.0 0.00 0.00 0.00 60 1008.1
20200407223043 65 117 1.0 4.0 0.00 0.00 0.00 59 1008.0
20200407221527 65 122 1.0 7.0 0.00 0.00 0.00 58 1007.9
20200407220040 66 234 0.0 3.0 0.00 0.00 0.00 56 1008.0
20200407214521 66 227 1.0 3.0 0.00 0.00 0.00 54 1008.2
20200407213050 66 248 0.0 3.0 0.00 0.00 0.00 54 1008.4
20200407211548 67 205 2.0 8.0 0.00 0.00 0.00 53 1008.4
20200407210049 67 257 1.0 5.0 0.00 0.00 0.00 52 1008.6